Time;durP1;ratioP1;P1;durP2;ratioP2;P2;SDS_P1;SDS_P2;PMS_P1;PMS_P2;Temp;Humidity;BMP_temperature;BMP_pressure;BME280_temperature;BME280_humidity;BME280_pressure;Samples;Min_cycle;Max_cycle;Signal;HPM_P1;HPM_P2
2023/09/04 06:56:32;;;;;;;15.20;9.68;;;;;;;14.71;100.00;102434.03;5069822;28;20394;-75
2023/09/04 06:58:58;;;;;;;13.60;12.20;;;;;;;14.73;100.00;102425.66;5074124;28;20041;-79
2023/09/04 07:01:23;;;;;;;14.07;12.73;;;;;;;14.77;100.00;102432.34;5065762;28;20032;-79
2023/09/04 07:03:52;;;;;;;14.27;12.77;;;;;;;14.81;100.00;102422.72;5068610;28;20025;-83
2023/09/04 07:06:17;;;;;;;14.52;13.13;;;;;;;14.88;100.00;102430.84;5065828;28;20383;-77
2023/09/04 07:08:42;;;;;;;13.52;12.13;;;;;;;15.02;100.00;102429.75;5049689;28;20119;-81
2023/09/04 07:11:08;;;;;;;13.93;12.52;;;;;;;15.04;100.00;102430.38;5048347;28;20060;-80
2023/09/04 07:13:33;;;;;;;13.95;12.45;;;;;;;15.11;100.00;102427.59;5048627;28;20025;-80
2023/09/04 07:15:58;;;;;;;14.07;12.50;;;;;;;15.16;100.00;102418.78;5065016;28;20057;-80
2023/09/04 07:18:24;;;;;;;15.15;13.00;;;;;;;15.24;100.00;102421.25;5061158;28;20074;-77
2023/09/04 07:20:49;;;;;;;16.20;12.60;;;;;;;15.35;100.00;102425.19;5071129;28;20033;-80
2023/09/04 07:23:15;;;;;;;13.95;12.15;;;;;;;15.40;100.00;102420.75;5048111;28;20068;-75
2023/09/04 07:25:40;;;;;;;13.80;12.25;;;;;;;15.48;100.00;102419.66;5049969;28;20119;-78
2023/09/04 07:28:06;;;;;;;14.82;11.95;;;;;;;15.62;100.00;102427.75;5049011;28;20029;-76
2023/09/04 07:30:31;;;;;;;12.30;11.10;;;;;;;15.67;100.00;102420.59;5049197;28;20036;-77
2023/09/04 07:32:56;;;;;;;15.32;11.65;;;;;;;15.80;100.00;102424.28;5049271;28;20116;-79
2023/09/04 07:35:22;;;;;;;12.38;11.20;;;;;;;15.85;100.00;102428.03;5051395;28;20127;-78
2023/09/04 07:37:47;;;;;;;11.07;9.98;;;;;;;15.95;100.00;102427.53;5068675;28;20028;-78
2023/09/04 07:40:12;;;;;;;11.93;10.70;;;;;;;16.02;100.00;102428.31;5067778;28;20052;-82
2023/09/04 07:42:40;;;;;;;12.68;10.85;;;;;;;16.11;100.00;102428.88;5068791;28;20500;-81
2023/09/04 07:45:06;;;;;;;15.60;10.82;;;;;;;16.15;100.00;102434.72;5065688;28;20037;-77
2023/09/04 07:47:31;;;;;;;12.20;10.63;;;;;;;16.24;100.00;102430.63;5062303;28;20028;-76
2023/09/04 07:49:57;;;;;;;13.93;10.57;;;;;;;16.37;100.00;102432.41;5059152;28;20036;-78
2023/09/04 07:52:22;;;;;;;10.63;9.52;;;;;;;16.42;100.00;102425.19;5059918;28;20036;-77
2023/09/04 07:54:50;;;;;;;12.88;9.80;;;;;;;16.57;100.00;102422.09;5068452;28;20048;-77
2023/09/04 07:57:16;;;;;;;10.27;9.18;;;;;;;16.62;100.00;102416.81;5047372;28;20425;-78
2023/09/04 07:59:41;;;;;;;11.75;10.07;;;;;;;16.67;100.00;102413.41;5047847;28;20120;-82
2023/09/04 08:02:07;;;;;;;11.00;9.10;;;;;;;16.73;100.00;102409.75;5044890;28;20467;-76
2023/09/04 08:04:32;;;;;;;10.90;8.85;;;;;;;16.82;100.00;102405.63;5052284;28;20108;-77
2023/09/04 08:06:58;;;;;;;9.40;8.57;;;;;;;16.95;100.00;102415.63;5059733;28;20028;-76
2023/09/04 08:09:23;;;;;;;10.23;8.40;;;;;;;16.98;100.00;102412.41;5048723;28;20033;-76
2023/09/04 08:11:49;;;;;;;9.63;8.30;;;;;;;17.03;100.00;102411.72;5051892;28;20045;-77
2023/09/04 08:14:14;;;;;;;10.40;8.73;;;;;;;17.11;100.00;102407.84;5054623;28;20472;-76
2023/09/04 08:16:40;;;;;;;10.55;8.40;;;;;;;17.15;100.00;102406.28;5053744;28;20052;-75
2023/09/04 08:19:05;;;;;;;8.57;7.72;;;;;;;17.20;100.00;102408.34;5054678;28;20400;-76
2023/09/04 08:21:31;;;;;;;8.23;7.43;;;;;;;17.35;100.00;102414.25;5049664;28;20474;-75
2023/09/04 08:23:57;;;;;;;11.77;7.40;;;;;;;17.38;100.00;102408.31;5043936;28;20388;-78
2023/09/04 08:26:22;;;;;;;9.82;7.28;;;;;;;17.51;100.00;102412.72;5047736;28;20040;-77
2023/09/04 08:28:47;;;;;;;8.35;7.20;;;;;;;17.59;100.00;102420.63;5051943;28;20034;-72
2023/09/04 08:31:13;;;;;;;9.63;7.38;;;;;;;17.65;100.00;102416.13;5053406;28;20064;-74
2023/09/04 08:33:38;;;;;;;8.98;7.18;;;;;;;17.67;100.00;102406.59;5053677;28;20032;-75
2023/09/04 08:36:04;;;;;;;9.05;7.57;;;;;;;17.73;100.00;102404.00;5053402;28;20033;-74
2023/09/04 08:38:29;;;;;;;9.75;6.75;;;;;;;17.86;100.00;102407.34;5037165;28;20037;-78
2023/09/04 08:41:07;;;;;;;10.55;6.65;;;;;;;17.98;100.00;102407.41;5053588;28;20621;-74
2023/09/04 08:43:32;;;;;;;9.32;6.72;;;;;;;18.02;100.00;102405.81;5034296;28;20108;-74
2023/09/04 08:46:02;;;;;;;10.98;6.38;;;;;;;18.19;100.00;102411.44;5034295;28;20069;-73
2023/09/04 08:48:30;;;;;;;7.22;5.72;;;;;;;18.18;100.00;102415.25;5033589;28;20495;-73
2023/09/04 08:50:57;;;;;;;7.68;5.85;;;;;;;18.25;100.00;102417.88;5034765;28;20419;-73
2023/09/04 08:53:23;;;;;;;6.68;5.40;;;;;;;18.42;100.00;102410.59;5033972;28;20392;-74
2023/09/04 08:55:49;;;;;;;7.55;5.55;;;;;;;18.45;100.00;102406.56;5034939;28;20381;-74
2023/09/04 08:58:15;;;;;;;8.52;5.18;;;;;;;18.60;100.00;102408.81;5034460;28;20029;-74
2023/09/04 09:00:42;;;;;;;6.53;5.30;;;;;;;18.59;100.00;102404.38;5046627;28;20090;-74
2023/09/04 09:03:08;;;;;;;7.10;5.32;;;;;;;18.72;100.00;102406.88;5068204;28;20056;-74
2023/09/04 09:05:34;;;;;;;6.80;5.00;;;;;;;18.78;100.00;102402.28;5054459;28;20396;-75
2023/09/04 09:08:00;;;;;;;7.68;4.95;;;;;;;18.97;100.00;102391.19;5052846;28;20025;-74
2023/09/04 09:10:26;;;;;;;5.43;4.93;;;;;;;18.89;100.00;102392.44;5053897;28;20033;-74
2023/09/04 09:12:51;;;;;;;5.97;4.70;;;;;;;19.05;100.00;102396.28;5047499;28;20040;-77
2023/09/04 09:15:18;;;;;;;5.22;4.38;;;;;;;19.15;100.00;102395.66;5033653;28;20038;-77
2023/09/04 09:17:53;;;;;;;6.53;4.43;;;;;;;19.25;100.00;102399.44;5033972;28;20033;-75
2023/09/04 09:20:29;;;;;;;6.72;4.00;;;;;;;19.33;100.00;102405.63;5033788;28;20393;-77
2023/09/04 09:22:55;;;;;;;4.38;3.85;;;;;;;19.39;100.00;102407.38;5038519;28;20025;-77
2023/09/04 09:25:21;;;;;;;7.25;3.80;;;;;;;19.42;100.00;102399.47;5054210;28;20079;-76
2023/09/04 09:27:49;;;;;;;7.65;4.18;;;;;;;19.51;100.00;102405.38;5053174;28;20468;-73
2023/09/04 09:30:15;;;;;;;5.38;3.50;;;;;;;19.62;100.00;102398.97;5044200;28;20033;-78
2023/09/04 09:32:42;;;;;;;3.50;3.20;;;;;;;19.72;100.00;102414.00;5052287;28;20036;-79
2023/09/04 09:35:09;;;;;;;5.70;3.55;;;;;;;19.72;100.00;102412.06;5052283;28;20457;-73
2023/09/04 09:37:34;;;;;;;6.45;3.65;;;;;;;19.82;100.00;102408.69;5053609;28;20037;-72
2023/09/04 09:40:00;;;;;;;5.57;3.47;;;;;;;19.88;100.00;102404.94;5053034;28;20048;-73
2023/09/04 09:42:25;;;;;;;7.38;3.30;;;;;;;19.90;100.00;102405.53;5038664;28;20034;-73
2023/09/04 09:44:52;;;;;;;7.65;3.30;;;;;;;20.09;100.00;102408.00;5033364;28;20033;-73
2023/09/04 09:47:17;;;;;;;7.03;3.10;;;;;;;;;;5043507;28;20483;-72
2023/09/04 09:49:43;;;;;;;4.23;2.67;;;;;;;20.24;100.00;102399.97;5053208;28;20032;-75
2023/09/04 09:52:10;;;;;;;4.60;2.50;;;;;;;20.33;100.00;102401.22;5053144;28;20278;-74
2023/09/04 09:54:43;;;;;;;4.35;2.80;;;;;;;20.33;100.00;102394.91;5052340;28;20395;-75
2023/09/04 09:57:10;;;;;;;5.78;2.92;;;;;;;20.41;100.00;102388.97;5051766;28;20070;-74
2023/09/04 09:59:38;;;;;;;5.55;2.80;;;;;;;20.50;100.00;102387.44;5040274;28;20037;-73
2023/09/04 10:02:04;;;;;;;3.65;2.60;;;;;;;20.53;100.00;102384.19;5047338;28;20029;-74
2023/09/04 10:04:31;;;;;;;3.47;2.80;;;;;;;20.55;100.00;102383.94;5052194;28;20078;-72
2023/09/04 10:07:00;;;;;;;2.85;2.60;;;;;;;20.66;100.00;102384.91;5053447;28;20512;-74
2023/09/04 10:09:27;;;;;;;5.28;2.88;;;;;;;20.70;100.00;102386.91;5052713;28;20048;-74
2023/09/04 10:12:07;;;;;;;5.07;3.15;;;;;;;20.71;100.00;102379.47;5036917;28;20396;-75
2023/09/04 10:14:38;;;;;;;4.38;2.95;;;;;;;20.82;100.00;102381.25;5033102;28;20025;-78
2023/09/04 10:17:08;;;;;;;6.15;3.00;;;;;;;20.78;100.00;102380.09;5045808;28;20024;-77
2023/09/04 10:19:35;;;;;;;4.35;2.80;;;;;;;20.96;100.00;102380.88;5053076;28;20468;-77
2023/09/04 10:22:06;;;;;;;5.72;2.88;;;;;;;21.04;100.00;102381.22;5044747;28;20025;-75
2023/09/04 10:24:48;;;;;;;;;;;;;;;21.02;100.00;102374.34;5045461;28;20119;-76
2023/09/04 10:27:16;;;;;;;3.53;2.80;;;;;;;21.14;100.00;102371.44;5036977;28;19913;-78
2023/09/04 10:29:51;;;;;;;3.35;2.60;;;;;;;21.27;100.00;102362.72;5041517;28;20098;-80
2023/09/04 10:32:17;;;;;;;3.85;2.67;;;;;;;21.37;100.00;102373.84;5036969;28;20033;-77
2023/09/04 10:34:43;;;;;;;3.10;2.80;;;;;;;21.45;100.00;102364.28;5039167;28;20484;-77
2023/09/04 10:37:10;;;;;;;5.10;2.38;;;;;;;21.50;88.00;102363.53;5044304;28;20040;-77
2023/09/04 10:39:37;;;;;;;2.92;2.28;;;;;;;21.66;86.43;102357.06;5052198;28;20467;-75
2023/09/04 10:42:04;;;;;;;3.90;2.45;;;;;;;21.61;80.17;102354.25;5052722;28;20025;-78
2023/09/04 10:44:51;;;;;;;3.30;2.38;;;;;;;21.68;82.99;102356.78;5053472;28;20029;-75
2023/09/04 10:47:17;;;;;;;3.30;2.30;;;;;;;21.75;76.20;102346.38;5035746;28;20477;-75
2023/09/04 10:49:44;;;;;;;5.60;2.42;;;;;;;21.88;79.32;102347.88;5038045;28;20033;-75
2023/09/04 10:52:10;;;;;;;4.60;2.08;;;;;;;22.02;70.99;102348.22;5032513;28;20029;-74
2023/09/04 10:54:36;;;;;;;2.22;1.85;;;;;;;22.06;73.06;102347.41;5033311;28;20046;-74
2023/09/04 10:57:07;;;;;;;2.20;2.00;;;;;;;22.18;63.28;102336.19;5033064;28;20044;-74
2023/09/04 10:59:57;;;;;;;5.53;2.20;;;;;;;22.24;74.42;102337.06;5032055;28;20124;-78
2023/09/04 11:02:27;;;;;;;3.92;2.30;;;;;;;22.34;68.77;102334.34;5029747;28;20111;-76
2023/09/04 11:04:53;;;;;;;3.30;2.30;;;;;;;22.41;65.10;102328.59;5032397;28;20030;-75
2023/09/04 11:07:21;;;;;;;2.45;2.22;;;;;;;22.50;65.66;102332.50;5030514;28;20034;-79
2023/09/04 11:09:51;;;;;;;3.45;2.05;;;;;;;22.47;64.33;102328.34;5032236;28;20376;-75
2023/09/04 11:12:23;;;;;;;2.78;2.10;;;;;;;22.63;63.73;102331.16;5030706;28;20021;-78
2023/09/04 11:14:52;;;;;;;4.75;2.42;;;;;;;22.70;65.29;102326.22;5032426;28;20069;-76
2023/09/04 11:17:21;;;;;;;2.47;2.28;;;;;;;22.74;64.29;102324.56;5032228;28;20505;-73
2023/09/04 11:19:47;;;;;;;4.35;2.15;;;;;;;22.78;67.27;102328.47;5032760;28;20057;-73
2023/09/04 11:22:19;;;;;;;2.50;2.08;;;;;;;22.84;64.83;102326.53;5030840;28;20116;-74
2023/09/04 11:24:45;;;;;;;8.05;2.40;;;;;;;22.97;66.78;102327.94;5032109;28;20060;-73
2023/09/04 11:27:11;;;;;;;2.50;2.28;;;;;;;23.00;61.96;102319.13;5030877;28;20033;-75
2023/09/04 11:29:36;;;;;;;3.38;2.10;;;;;;;22.99;66.35;102301.72;5031266;28;20036;-78
2023/09/04 11:32:02;;;;;;;5.13;2.42;;;;;;;23.13;66.58;102310.34;5030949;28;20029;-77
2023/09/04 11:34:28;;;;;;;2.58;2.20;;;;;;;23.16;67.22;102308.97;5030616;28;20491;-72
2023/09/04 11:36:53;;;;;;;3.78;2.30;;;;;;;23.18;63.19;102307.56;5032256;28;20041;-73
2023/09/04 11:39:19;;;;;;;5.93;2.20;;;;;;;23.27;62.08;102304.28;5032024;28;20029;-73
2023/09/04 11:41:46;;;;;;;4.00;2.00;;;;;;;23.31;62.40;102302.59;5033487;28;20535;-71
2023/09/04 11:44:12;;;;;;;5.70;2.03;;;;;;;23.46;65.21;102305.38;5034542;28;20034;-77
2023/09/04 11:46:38;;;;;;;3.90;2.33;;;;;;;23.34;60.21;102304.78;5036011;28;20037;-72
2023/09/04 11:49:04;;;;;;;2.85;2.00;;;;;;;23.52;60.81;102300.66;5035564;28;20033;-73
2023/09/04 11:51:32;;;;;;;2.97;2.00;;;;;;;23.53;60.97;102303.13;5035626;28;20032;-73
2023/09/04 11:53:57;;;;;;;2.22;1.90;;;;;;;23.67;60.77;102299.81;5036364;28;20033;-73
2023/09/04 11:56:22;;;;;;;3.55;2.10;;;;;;;23.80;60.83;102301.19;5046195;28;20067;-72
2023/09/04 11:58:48;;;;;;;3.83;1.83;;;;;;;23.95;57.59;102298.41;5050860;28;20029;-72
2023/09/04 12:01:13;;;;;;;2.92;2.08;;;;;;;23.99;58.59;102301.41;5034588;28;20515;-75
2023/09/04 12:03:39;;;;;;;3.90;2.03;;;;;;;24.10;60.26;102297.53;5036651;28;20104;-72
2023/09/04 12:06:04;;;;;;;2.33;2.10;;;;;;;24.03;57.38;102295.03;5034226;28;20026;-74
2023/09/04 12:08:30;;;;;;;3.58;2.20;;;;;;;24.19;58.34;102303.31;5035389;28;20033;-75
2023/09/04 12:10:55;;;;;;;2.65;2.05;;;;;;;24.18;59.69;102294.16;5044169;28;20029;-70
2023/09/04 12:13:22;;;;;;;1.98;1.80;;;;;;;24.33;60.68;102298.00;5035439;28;20026;-75
2023/09/04 12:15:47;;;;;;;5.13;2.00;;;;;;;24.38;60.10;102297.97;5035354;28;20483;-73
2023/09/04 12:18:14;;;;;;;2.40;1.85;;;;;;;24.39;55.04;102296.84;5033949;28;20029;-74
2023/09/04 12:20:42;;;;;;;2.38;1.90;;;;;;;24.59;56.90;102285.72;5033997;28;20026;-73
2023/09/04 12:23:08;;;;;;;2.83;2.00;;;;;;;24.62;54.50;102287.06;5033945;28;20365;-75
2023/09/04 12:25:37;;;;;;;3.88;1.80;;;;;;;24.62;54.35;102278.78;5035113;28;20034;-72
2023/09/04 12:28:05;;;;;;;3.08;2.05;;;;;;;24.79;57.09;102281.19;5035269;28;20021;-74
2023/09/04 12:30:34;;;;;;;8.00;2.35;;;;;;;24.85;52.16;102274.50;5034792;28;20029;-76
2023/09/04 12:32:59;;;;;;;1.98;1.70;;;;;;;24.84;50.21;102270.06;5035076;28;20029;-73
2023/09/04 12:35:24;;;;;;;2.85;1.90;;;;;;;24.84;50.12;102264.53;5033395;28;20037;-75
2023/09/04 12:37:52;;;;;;;4.55;1.80;;;;;;;25.00;50.94;102261.63;5035040;28;20025;-73
2023/09/04 12:40:19;;;;;;;1.98;1.77;;;;;;;25.03;51.03;102266.59;5034547;28;20025;-71
2023/09/04 12:42:44;;;;;;;2.63;1.73;;;;;;;25.03;50.81;102269.34;5035085;28;20025;-74
2023/09/04 12:45:10;;;;;;;1.67;1.58;;;;;;;25.09;50.72;102262.66;5034936;28;20091;-75
2023/09/04 12:47:35;;;;;;;3.10;1.90;;;;;;;25.26;49.32;102254.75;5034919;28;20048;-75
2023/09/04 12:50:01;;;;;;;4.88;1.90;;;;;;;25.22;46.79;102252.88;5033522;28;20462;-72
2023/09/04 12:52:26;;;;;;;2.20;1.60;;;;;;;25.33;47.83;102243.38;5034444;28;20048;-73
2023/09/04 12:54:52;;;;;;;4.78;1.70;;;;;;;25.36;46.67;102244.72;5034299;28;20050;-78
2023/09/04 12:57:17;;;;;;;3.75;2.00;;;;;;;25.38;45.90;102234.16;5034172;28;20029;-73
2023/09/04 12:59:43;;;;;;;7.50;1.83;;;;;;;25.38;47.15;102234.16;5034553;28;20087;-75
2023/09/04 13:02:08;;;;;;;4.70;1.80;;;;;;;25.44;46.89;102225.53;5030891;28;20064;-74
2023/09/04 13:04:33;;;;;;;2.35;1.92;;;;;;;25.47;48.17;102226.91;5034287;28;20039;-76
2023/09/04 13:06:59;;;;;;;5.15;2.00;;;;;;;25.34;48.10;102219.28;5034185;28;20021;-74
2023/09/04 13:09:24;;;;;;;5.30;1.75;;;;;;;25.39;49.25;102222.78;5034570;28;20029;-72
2023/09/04 13:11:49;;;;;;;2.58;1.85;;;;;;;25.64;49.38;102221.72;5033638;28;20484;-75
2023/09/04 13:14:15;;;;;;;3.75;2.08;;;;;;;25.51;51.48;102227.13;5034770;28;20125;-73
2023/09/04 13:16:40;;;;;;;4.33;2.30;;;;;;;25.54;50.42;102210.72;5032897;28;20044;-76
2023/09/04 13:19:05;;;;;;;3.40;2.20;;;;;;;25.57;51.48;102220.41;5034217;28;20351;-71
2023/09/04 13:21:31;;;;;;;3.40;2.30;;;;;;;25.50;51.22;102215.22;5032717;28;20029;-77
2023/09/04 13:23:56;;;;;;;3.42;2.00;;;;;;;25.62;53.75;102204.56;5034189;28;20112;-74
2023/09/04 13:26:22;;;;;;;5.10;2.08;;;;;;;25.63;52.53;102192.31;5032779;28;20548;-76
2023/09/04 13:28:47;;;;;;;5.38;2.25;;;;;;;25.58;49.93;102197.94;5033969;28;20461;-75
2023/09/04 13:31:13;;;;;;;2.85;2.03;;;;;;;25.63;48.54;102192.31;5032737;28;20029;-74
2023/09/04 13:33:39;;;;;;;3.33;2.00;;;;;;;25.59;48.33;102199.59;5033880;28;20029;-74
2023/09/04 13:36:05;;;;;;;3.60;2.15;;;;;;;25.64;48.74;102190.41;5032461;28;20156;-72
2023/09/04 13:38:31;;;;;;;2.25;1.90;;;;;;;25.55;49.02;102200.50;5033669;28;20112;-75
2023/09/04 13:40:56;;;;;;;3.38;1.77;;;;;;;25.63;49.22;102186.78;5033778;28;20095;-74
2023/09/04 13:43:21;;;;;;;3.63;1.90;;;;;;;25.70;49.76;102185.63;5033238;28;20036;-75
2023/09/04 13:45:46;;;;;;;3.35;1.88;;;;;;;25.71;46.12;102187.25;5033892;28;20041;-76
2023/09/04 13:48:12;;;;;;;3.08;2.03;;;;;;;25.69;47.25;102189.50;5033586;28;20354;-74
2023/09/04 13:50:37;;;;;;;2.13;1.80;;;;;;;25.69;45.47;102178.44;5031994;28;20074;-73
2023/09/04 13:53:03;;;;;;;4.75;1.55;;;;;;;25.68;43.65;102172.06;5033488;28;20576;-72
2023/09/04 13:55:29;;;;;;;2.90;1.92;;;;;;;25.69;46.23;102173.69;5033183;28;20046;-75
2023/09/04 13:57:54;;;;;;;1.60;1.50;;;;;;;25.74;43.47;102170.03;5033228;28;20484;-74
2023/09/04 14:00:20;;;;;;;5.55;1.70;;;;;;;25.88;45.73;102170.97;5033265;28;20040;-74
2023/09/04 14:02:46;;;;;;;1.75;1.60;;;;;;;25.99;44.53;102172.50;5029910;28;20380;-74
2023/09/04 14:05:15;;;;;;;4.95;1.77;;;;;;;25.93;44.89;102170.91;5032922;28;20084;-73
2023/09/04 14:07:41;;;;;;;6.63;2.00;;;;;;;25.96;46.45;102166.72;5033339;28;20029;-73
2023/09/04 14:10:07;;;;;;;2.83;1.80;;;;;;;25.90;45.79;102168.72;5032953;28;20449;-74
